Time;durP1;ratioP1;P1;durP2;ratioP2;P2;SDS_P1;SDS_P2;PMS_P1;PMS_P2;Temp;Humidity;BMP_temperature;BMP_pressure;BME280_temperature;BME280_humidity;BME280_pressure;Samples;Min_cycle;Max_cycle;Signal;HPM_P1;HPM_P2
2023/06/25 00:01:10;;;;;;;6.47;5.88;;;;;;;23.95;48.30;99347.94;5073503;28;20445;-77
2023/06/25 00:03:36;;;;;;;6.25;5.65;;;;;;;23.14;48.82;99248.13;5073524;28;20451;-77
2023/06/25 00:06:01;;;;;;;5.75;5.25;;;;;;;23.52;48.98;99308.78;5073435;28;20027;-77
2023/06/25 00:08:27;;;;;;;6.32;5.57;;;;;;;23.34;49.00;99285.84;5073341;28;20052;-77
2023/06/25 00:10:52;;;;;;;5.57;5.00;;;;;;;23.50;49.29;99326.28;5073185;28;20033;-77
2023/06/25 00:13:18;;;;;;;7.03;5.45;;;;;;;23.68;49.43;99358.16;5071869;28;20025;-78
2023/06/25 00:15:43;;;;;;;5.88;5.38;;;;;;;23.37;49.53;99304.19;5073135;28;20033;-77
2023/06/25 00:18:09;;;;;;;7.85;6.05;;;;;;;23.27;49.70;99287.19;5072898;28;20082;-77
2023/06/25 00:20:34;;;;;;;7.40;6.50;;;;;;;23.45;49.48;99311.75;5072956;28;20024;-77
2023/06/25 00:22:59;;;;;;;6.97;5.97;;;;;;;23.30;49.72;99284.78;5071589;28;20023;-77
2023/06/25 00:25:26;;;;;;;6.93;5.57;;;;;;;23.69;49.93;99344.41;5073102;28;20062;-78
2023/06/25 00:27:52;;;;;;;9.18;5.93;;;;;;;23.73;49.84;99340.09;5072903;28;20060;-77
2023/06/25 00:30:17;;;;;;;7.00;6.30;;;;;;;23.65;49.84;99337.13;5072751;28;20420;-77
2023/06/25 00:32:43;;;;;;;6.55;5.95;;;;;;;23.38;49.72;99316.59;5072854;28;20032;-78
2023/06/25 00:35:10;;;;;;;6.90;5.93;;;;;;;23.57;49.94;99354.63;5072495;28;20033;-77
2023/06/25 00:37:37;;;;;;;9.40;6.40;;;;;;;23.55;50.55;99372.16;5072771;28;20041;-77
2023/06/25 00:40:07;;;;;;;8.73;6.53;;;;;;;23.51;50.36;99373.72;5072498;28;20416;-77
2023/06/25 00:42:43;;;;;;;7.80;5.93;;;;;;;23.22;50.50;99317.63;5072587;28;20103;-77
2023/06/25 00:45:12;;;;;;;6.88;5.72;;;;;;;23.06;50.55;99278.28;5072682;28;20031;-77
2023/06/25 00:47:38;;;;;;;6.50;5.85;;;;;;;23.07;50.45;99296.03;5072698;28;20020;-77
2023/06/25 00:50:05;;;;;;;5.95;5.45;;;;;;;23.56;50.40;99389.94;5072306;28;20073;-77
2023/06/25 00:52:31;;;;;;;6.60;6.00;;;;;;;23.57;49.86;99378.06;5070972;28;20047;-78
2023/06/25 00:54:56;;;;;;;7.50;5.97;;;;;;;23.36;50.26;99363.72;5072262;28;20066;-78
2023/06/25 00:57:21;;;;;;;6.30;5.70;;;;;;;23.02;50.61;99326.44;5072240;28;20045;-77
2023/06/25 00:59:48;;;;;;;6.00;5.40;;;;;;;23.33;50.67;99377.72;5070953;28;20445;-77
2023/06/25 01:02:34;;;;;;;6.72;5.75;;;;;;;23.27;50.57;99389.56;5072389;28;20107;-77
2023/06/25 01:05:00;;;;;;;7.97;6.30;;;;;;;23.23;50.91;99377.69;5072154;28;20441;-77
2023/06/25 01:07:26;;;;;;;7.68;5.85;;;;;;;22.87;50.75;99312.94;5071913;28;20020;-78
2023/06/25 01:09:55;;;;;;;7.53;5.65;;;;;;;23.14;51.01;99348.59;5071978;28;20496;-77
2023/06/25 01:12:21;;;;;;;5.70;5.10;;;;;;;22.92;50.80;99314.81;5072023;28;20035;-77
2023/06/25 01:14:48;;;;;;;7.22;6.53;;;;;;;23.28;51.05;99373.13;5070662;28;20459;-78
2023/06/25 01:17:14;;;;;;;6.45;5.55;;;;;;;23.24;50.98;99374.75;5072027;28;20101;-78
2023/06/25 01:19:40;;;;;;;7.07;5.85;;;;;;;23.24;50.97;99373.94;5071902;28;20060;-77
2023/06/25 01:22:07;;;;;;;7.53;5.95;;;;;;;23.22;51.11;99370.69;5071759;28;20489;-78
2023/06/25 01:24:34;;;;;;;6.75;6.05;;;;;;;23.18;51.02;99367.72;5071806;28;20031;-77
2023/06/25 01:27:00;;;;;;;7.53;6.00;;;;;;;22.69;50.97;99295.34;5071811;28;20540;-77
2023/06/25 01:29:26;;;;;;;5.65;5.13;;;;;;;22.65;51.14;99293.44;5071686;28;20720;-77
2023/06/25 01:31:53;;;;;;;7.75;5.68;;;;;;;23.12;51.07;99358.81;5071895;28;20025;-77
2023/06/25 01:34:22;;;;;;;7.38;6.53;;;;;;;22.76;51.05;99300.47;5071629;28;20024;-77
2023/06/25 01:36:51;;;;;;;6.57;5.65;;;;;;;23.06;51.14;99348.28;5071521;28;20413;-78
2023/06/25 01:39:21;;;;;;;6.78;5.63;;;;;;;22.97;51.34;99347.97;5071737;28;20409;-78
2023/06/25 01:41:47;;;;;;;6.93;5.80;;;;;;;22.87;51.47;99328.25;5070374;28;20017;-77
2023/06/25 01:44:15;;;;;;;7.00;5.88;;;;;;;22.35;51.32;99273.38;5071445;28;20028;-77
2023/06/25 01:46:41;;;;;;;7.65;6.18;;;;;;;22.80;51.54;99344.66;5069422;28;20477;-77
2023/06/25 01:49:07;;;;;;;7.00;6.07;;;;;;;22.74;51.67;99343.78;5071223;28;20386;-78
2023/06/25 01:51:33;;;;;;;6.25;5.65;;;;;;;22.70;51.58;99347.28;5070124;28;20082;-77
2023/06/25 01:53:59;;;;;;;7.55;6.15;;;;;;;22.66;51.77;99355.06;5071188;28;20493;-77
2023/06/25 01:56:25;;;;;;;6.50;5.85;;;;;;;22.31;51.85;99301.06;5069937;28;20082;-78
2023/06/25 01:58:54;;;;;;;10.18;6.78;;;;;;;22.24;52.04;99301.25;5071153;28;20040;-77
2023/06/25 02:01:20;;;;;;;6.85;6.20;;;;;;;22.39;52.16;99333.66;5070028;28;20107;-78
2023/06/25 02:03:45;;;;;;;7.15;6.45;;;;;;;22.31;52.35;99339.53;5071496;28;20099;-78
2023/06/25 02:06:11;;;;;;;7.70;6.03;;;;;;;22.07;52.30;99312.19;5070115;28;20107;-77
2023/06/25 02:08:36;;;;;;;10.18;6.70;;;;;;;22.28;52.48;99341.91;5071232;28;20104;-77
2023/06/25 02:11:02;;;;;;;8.55;6.50;;;;;;;22.16;52.35;99321.38;5071010;28;20405;-76
2023/06/25 02:13:27;;;;;;;7.57;6.80;;;;;;;22.10;52.52;99319.72;5071133;28;20036;-77
2023/06/25 02:15:52;;;;;;;10.02;6.85;;;;;;;21.65;52.56;99253.00;5069908;28;20038;-76
2023/06/25 02:18:18;;;;;;;8.88;6.53;;;;;;;21.62;52.79;99253.50;5071222;28;20027;-77
2023/06/25 02:20:43;;;;;;;8.35;6.03;;;;;;;21.77;52.81;99277.00;5071417;28;20028;-76
2023/06/25 02:23:09;;;;;;;7.00;6.00;;;;;;;22.11;52.65;99334.81;5071082;28;20036;-78
2023/06/25 02:25:34;;;;;;;8.50;6.40;;;;;;;21.77;52.84;99285.06;5071114;28;20413;-77
2023/06/25 02:27:59;;;;;;;7.13;6.40;;;;;;;21.67;53.07;99280.41;5070997;28;20099;-77
2023/06/25 02:30:25;;;;;;;6.95;6.22;;;;;;;21.77;53.04;99303.88;5070858;28;20107;-76
2023/06/25 02:32:50;;;;;;;9.65;6.45;;;;;;;21.91;53.20;99331.94;5069711;28;20036;-77
2023/06/25 02:35:15;;;;;;;8.68;6.68;;;;;;;21.76;53.26;99302.25;5071080;28;20107;-77
2023/06/25 02:37:41;;;;;;;8.48;6.95;;;;;;;21.61;53.26;99283.31;5071271;28;20020;-77
2023/06/25 02:40:07;;;;;;;8.55;6.60;;;;;;;21.60;53.35;99289.75;5071099;28;20021;-77
2023/06/25 02:42:32;;;;;;;9.10;6.28;;;;;;;21.84;53.24;99318.72;5073795;28;20517;-78
2023/06/25 02:44:57;;;;;;;8.35;5.85;;;;;;;21.93;53.19;99328.97;5072990;28;20081;-78
2023/06/25 02:47:23;;;;;;;7.13;6.28;;;;;;;21.87;53.34;99307.44;5071196;28;20485;-77
2023/06/25 02:49:48;;;;;;;9.30;6.63;;;;;;;21.67;53.33;99282.28;5071305;28;20024;-77
2023/06/25 02:52:14;;;;;;;8.45;6.70;;;;;;;22.01;53.10;99350.81;5071268;28;20417;-77
2023/06/25 02:54:39;;;;;;;8.07;6.28;;;;;;;21.96;53.39;99345.41;5071064;28;20029;-77
2023/06/25 02:57:04;;;;;;;7.72;6.47;;;;;;;21.34;53.44;99246.53;5069566;28;20599;-77
2023/06/25 02:59:30;;;;;;;8.18;6.22;;;;;;;21.92;53.35;99347.00;5072920;28;20035;-77
2023/06/25 03:01:55;;;;;;;8.90;6.90;;;;;;;21.93;53.49;99359.38;5074522;28;20461;-77
2023/06/25 03:04:20;;;;;;;8.20;7.30;;;;;;;21.04;53.35;99217.50;5075967;28;20017;-77
2023/06/25 03:06:46;;;;;;;9.15;6.85;;;;;;;21.88;53.55;99348.56;5078389;28;20485;-77
2023/06/25 03:09:11;;;;;;;7.20;6.50;;;;;;;21.60;53.61;99322.81;5074319;28;20028;-77
2023/06/25 03:11:37;;;;;;;7.97;6.18;;;;;;;21.16;53.75;99242.31;5074287;28;20029;-78
2023/06/25 03:14:02;;;;;;;7.68;6.80;;;;;;;21.36;53.68;99283.88;5074348;28;20024;-77
2023/06/25 03:16:28;;;;;;;8.23;6.53;;;;;;;21.80;53.67;99357.91;5074387;28;20021;-78
2023/06/25 03:18:53;;;;;;;7.15;6.45;;;;;;;21.75;53.86;99354.38;5072969;28;20067;-77
2023/06/25 03:21:18;;;;;;;8.93;6.55;;;;;;;21.23;53.84;99277.03;5074128;28;20671;-77
2023/06/25 03:23:44;;;;;;;7.25;6.55;;;;;;;21.65;53.90;99344.34;5074191;28;20039;-77
2023/06/25 03:26:09;;;;;;;8.00;6.88;;;;;;;21.70;53.91;99359.72;5074220;28;20569;-77
2023/06/25 03:28:34;;;;;;;7.07;6.35;;;;;;;21.35;53.83;99295.69;5074064;28;20544;-77
2023/06/25 03:31:00;;;;;;;9.57;7.03;;;;;;;21.14;53.98;99267.78;5073953;28;20052;-77
2023/06/25 03:33:25;;;;;;;9.70;7.32;;;;;;;21.59;53.81;99331.94;5073861;28;20024;-77
2023/06/25 03:35:51;;;;;;;8.10;6.88;;;;;;;21.37;53.96;99305.09;5073953;28;20052;-77
2023/06/25 03:38:17;;;;;;;8.85;7.00;;;;;;;21.23;53.83;99280.53;5072634;28;20051;-77
2023/06/25 03:40:42;;;;;;;9.52;6.85;;;;;;;21.54;53.86;99331.84;5073825;28;20485;-78
2023/06/25 03:43:07;;;;;;;7.18;6.47;;;;;;;21.70;53.72;99343.59;5074038;28;20024;-77
2023/06/25 03:45:33;;;;;;;9.57;7.10;;;;;;;21.72;53.66;99336.06;5073887;28;20099;-77
2023/06/25 03:47:58;;;;;;;9.73;7.30;;;;;;;21.60;53.70;99309.38;5073925;28;20017;-77
2023/06/25 03:50:24;;;;;;;8.88;6.95;;;;;;;21.56;53.75;99298.31;5073794;28;20017;-78
2023/06/25 03:52:49;;;;;;;10.98;7.53;;;;;;;21.80;53.55;99331.03;5073713;28;20016;-77
2023/06/25 03:55:14;;;;;;;8.75;7.85;;;;;;;21.39;53.65;99267.25;5073938;28;20059;-78
2023/06/25 03:57:40;;;;;;;8.63;7.72;;;;;;;21.61;53.86;99318.25;5073650;28;20111;-77
2023/06/25 04:00:07;;;;;;;10.30;8.10;;;;;;;21.74;53.73;99326.69;5074134;28;20055;-77
2023/06/25 04:02:32;;;;;;;7.90;7.10;;;;;;;22.00;53.65;99353.78;5073647;28;20036;-77
2023/06/25 04:04:58;;;;;;;10.07;7.75;;;;;;;21.74;53.71;99301.69;5073858;28;20031;-77
2023/06/25 04:07:23;;;;;;;8.57;7.65;;;;;;;21.89;53.72;99324.13;5073953;28;20021;-78
2023/06/25 04:09:48;;;;;;;10.85;8.00;;;;;;;21.65;53.76;99281.72;5072976;28;20507;-77
2023/06/25 04:12:14;;;;;;;9.45;7.68;;;;;;;22.13;53.75;99359.56;5073797;28;20024;-77
2023/06/25 04:14:39;;;;;;;10.77;8.07;;;;;;;22.17;53.82;99362.53;5073413;28;20111;-77
2023/06/25 04:17:05;;;;;;;11.07;8.27;;;;;;;22.17;53.47;99357.97;5073508;28;20032;-78
2023/06/25 04:19:31;;;;;;;11.68;8.88;;;;;;;22.27;53.60;99369.88;5073582;28;20418;-77
2023/06/25 04:21:56;;;;;;;11.18;7.78;;;;;;;22.35;53.53;99380.16;5073154;28;20028;-77
2023/06/25 04:24:22;;;;;;;10.77;8.35;;;;;;;21.69;53.46;99259.47;5073192;28;20386;-77
2023/06/25 04:26:47;;;;;;;11.27;7.47;;;;;;;22.27;53.28;99345.66;5073203;28;20024;-77
2023/06/25 04:29:12;;;;;;;10.55;7.63;;;;;;;22.51;53.45;99374.63;5072822;28;20033;-77
2023/06/25 04:31:39;;;;;;;9.85;7.60;;;;;;;22.41;53.33;99342.28;5071424;28;20021;-77
2023/06/25 04:34:04;;;;;;;9.07;8.00;;;;;;;22.12;53.32;99284.53;5072652;28;20042;-77
2023/06/25 04:36:29;;;;;;;10.20;7.78;;;;;;;22.65;53.56;99358.00;5072629;28;20413;-77
2023/06/25 04:38:55;;;;;;;8.85;7.22;;;;;;;22.94;53.41;99390.75;5072587;28;20404;-78
2023/06/25 04:41:20;;;;;;;8.60;7.35;;;;;;;22.63;53.50;99334.06;5072414;28;20023;-78
2023/06/25 04:43:46;;;;;;;8.27;7.45;;;;;;;23.05;53.45;99373.59;5072651;28;20552;-78
2023/06/25 04:46:11;;;;;;;9.45;8.02;;;;;;;22.65;53.47;99326.53;5072970;28;20035;-77
2023/06/25 04:48:37;;;;;;;10.60;8.02;;;;;;;22.96;53.22;99375.16;5072697;28;20119;-78
2023/06/25 04:51:03;;;;;;;11.75;8.13;;;;;;;22.90;53.33;99354.66;5072844;28;20066;-77
2023/06/25 04:53:29;;;;;;;8.88;7.82;;;;;;;22.62;53.31;99293.94;5072951;28;20048;-77
2023/06/25 04:55:54;;;;;;;10.18;8.13;;;;;;;23.10;53.49;99368.22;5072345;28;20032;-77
2023/06/25 04:58:19;;;;;;;8.65;6.80;;;;;;;23.00;53.11;99352.00;5072195;28;20052;-77
2023/06/25 05:00:45;;;;;;;8.07;6.75;;;;;;;23.24;53.06;99379.31;5070967;28;20498;-77
2023/06/25 05:03:10;;;;;;;7.85;6.38;;;;;;;23.27;52.94;99386.88;5071040;28;20123;-77
2023/06/25 05:05:36;;;;;;;8.10;6.35;;;;;;;23.31;53.03;99374.50;5072141;28;20104;-77
2023/06/25 05:08:01;;;;;;;7.43;6.72;;;;;;;23.21;52.81;99356.41;5072023;28;20033;-77
2023/06/25 05:10:26;;;;;;;9.93;7.55;;;;;;;23.07;52.72;99329.19;5072120;28;20386;-77
2023/06/25 05:12:52;;;;;;;9.43;7.28;;;;;;;23.34;52.41;99365.88;5072196;28;20040;-77
2023/06/25 05:15:17;;;;;;;9.63;7.25;;;;;;;23.13;52.37;99335.38;5072356;28;20558;-77
2023/06/25 05:17:43;;;;;;;9.73;7.95;;;;;;;23.40;52.08;99375.59;5072297;28;20055;-77
2023/06/25 05:20:09;;;;;;;8.05;7.05;;;;;;;23.01;51.95;99297.88;5072116;28;20024;-77
2023/06/25 05:22:34;;;;;;;7.88;6.68;;;;;;;23.62;51.80;99376.19;5071106;28;20104;-77
2023/06/25 05:24:59;;;;;;;8.73;6.63;;;;;;;23.65;51.36;99375.66;5072399;28;20500;-77
2023/06/25 05:27:25;;;;;;;7.60;6.68;;;;;;;23.72;51.28;99368.13;5071871;28;20158;-78
2023/06/25 05:29:50;;;;;;;8.98;7.38;;;;;;;23.45;50.99;99311.75;5071840;28;20035;-77
2023/06/25 05:32:17;;;;;;;8.13;7.00;;;;;;;23.70;50.60;99347.91;5071714;28;20485;-77
2023/06/25 05:34:43;;;;;;;9.20;5.97;;;;;;;23.87;50.15;99356.56;5071512;28;20029;-78
2023/06/25 05:37:08;;;;;;;9.13;6.90;;;;;;;24.03;49.44;99371.66;5071581;28;20024;-77
2023/06/25 05:39:34;;;;;;;6.68;6.07;;;;;;;23.98;48.96;99347.41;5071762;28;20028;-78
2023/06/25 05:41:59;;;;;;;7.25;5.80;;;;;;;23.77;48.83;99308.81;5071789;28;20051;-77
2023/06/25 05:44:26;;;;;;;5.90;5.30;;;;;;;24.11;48.26;99367.63;5072199;28;20406;-78
2023/06/25 05:46:51;;;;;;;6.88;5.15;;;;;;;24.26;47.80;99356.00;5070543;28;20405;-77
2023/06/25 05:49:17;;;;;;;6.20;5.60;;;;;;;24.34;47.48;99364.38;5071536;28;20025;-76
2023/06/25 05:51:43;;;;;;;6.38;5.38;;;;;;;24.43;46.97;99370.03;5071620;28;20107;-76
2023/06/25 05:54:09;;;;;;;6.30;5.68;;;;;;;24.23;46.13;99335.78;5071771;28;20027;-76
2023/06/25 05:56:34;;;;;;;7.55;5.47;;;;;;;24.38;45.62;99343.06;5076247;28;20020;-77
2023/06/25 05:58:59;;;;;;;5.80;5.22;;;;;;;24.31;45.47;99310.97;5074238;28;20055;-77
2023/06/25 06:01:25;;;;;;;5.97;4.95;;;;;;;24.31;45.18;99310.97;5071164;28;20020;-78
2023/06/25 06:03:51;;;;;;;6.13;5.38;;;;;;;24.87;45.23;99381.00;5071212;28;20512;-77
2023/06/25 06:06:17;;;;;;;7.28;5.32;;;;;;;24.44;44.84;99297.97;5069838;28;20025;-78
2023/06/25 06:08:42;;;;;;;6.10;4.97;;;;;;;24.97;43.98;99372.06;5071208;28;20059;-77
2023/06/25 06:11:08;;;;;;;6.45;5.85;;;;;;;25.00;43.58;99371.53;5071109;28;20025;-78
2023/06/25 06:13:34;;;;;;;7.10;4.78;;;;;;;24.79;43.61;99326.75;5071168;28;20025;-77
2023/06/25 06:15:59;;;;;;;7.45;5.10;;;;;;;24.72;43.47;99321.66;5071393;28;20486;-77
2023/06/25 06:18:25;;;;;;;5.78;5.18;;;;;;;25.24;43.08;99380.59;5071368;28;20096;-77
2023/06/25 06:20:50;;;;;;;8.93;5.43;;;;;;;25.01;43.34;99327.22;5071363;28;20032;-76
2023/06/25 06:23:15;;;;;;;7.00;4.97;;;;;;;25.00;43.11;99320.22;5071154;28;20024;-77
2023/06/25 06:25:41;;;;;;;7.05;4.90;;;;;;;25.14;42.57;99334.72;5071055;28;20036;-77
2023/06/25 06:28:06;;;;;;;6.40;5.55;;;;;;;25.53;42.66;99379.94;5070942;28;20028;-78
2023/06/25 06:30:32;;;;;;;7.30;5.00;;;;;;;25.51;42.40;99361.28;5071240;28;20069;-77
2023/06/25 06:32:57;;;;;;;9.10;5.45;;;;;;;25.56;42.75;99357.75;5072653;28;20024;-78
2023/06/25 06:35:22;;;;;;;10.57;6.47;;;;;;;25.58;42.69;99366.38;5074951;28;20078;-76
2023/06/25 06:37:48;;;;;;;11.27;5.75;;;;;;;25.40;42.65;99330.00;5075142;28;20411;-78
2023/06/25 06:40:13;;;;;;;6.50;5.20;;;;;;;25.73;42.80;99363.59;5074903;28;20485;-77
2023/06/25 06:42:39;;;;;;;6.82;5.95;;;;;;;25.80;42.88;99361.38;5074897;28;20162;-78
2023/06/25 06:45:04;;;;;;;7.55;5.60;;;;;;;25.54;42.97;99308.56;5074743;28;20028;-77
2023/06/25 06:47:30;;;;;;;8.82;5.78;;;;;;;25.54;42.78;99306.66;5074927;28;20420;-77
2023/06/25 06:49:55;;;;;;;7.00;5.93;;;;;;;25.77;43.35;99340.31;5074697;28;20016;-78
2023/06/25 06:52:25;;;;;;;8.27;5.85;;;;;;;25.71;43.67;99313.59;5074754;28;20025;-77
2023/06/25 06:54:50;;;;;;;8.05;5.53;;;;;;;25.71;43.64;99310.88;5074694;28;20024;-77
2023/06/25 06:57:16;;;;;;;8.85;5.95;;;;;;;25.79;43.52;99305.69;5074655;28;20051;-78
2023/06/25 06:59:41;;;;;;;8.10;6.22;;;;;;;25.96;43.59;99326.91;5074628;28;20061;-77
2023/06/25 07:02:07;;;;;;;7.30;5.80;;;;;;;25.73;43.44;99287.88;5074941;28;20024;-76
2023/06/25 07:04:32;;;;;;;8.23;6.30;;;;;;;25.87;43.61;99293.44;5073283;28;20021;-77
2023/06/25 07:06:57;;;;;;;7.00;5.78;;;;;;;26.20;42.99;99335.09;5074626;28;20024;-78
2023/06/25 07:09:25;;;;;;;6.63;5.60;;;;;;;26.28;42.94;99334.47;5074535;28;20021;-77
2023/06/25 07:11:51;;;;;;;7.10;5.32;;;;;;;26.37;42.60;99348.22;5074539;28;20104;-75
2023/06/25 07:14:16;;;;;;;6.55;5.90;;;;;;;26.43;41.97;99339.75;5074830;28;20108;-77
2023/06/25 07:16:42;;;;;;;5.28;4.78;;;;;;;26.38;40.74;99336.28;5073492;28;20020;-76
2023/06/25 07:19:08;;;;;;;5.82;5.32;;;;;;;26.13;40.41;99280.50;5074916;28;20116;-77
2023/06/25 07:21:33;;;;;;;6.80;5.50;;;;;;;26.52;40.92;99331.81;5073093;28;20067;-76
2023/06/25 07:23:58;;;;;;;7.10;5.20;;;;;;;26.32;41.04;99300.31;5073282;28;20024;-77
2023/06/25 07:26:25;;;;;;;6.32;5.38;;;;;;;26.38;40.70;99298.41;5074332;28;20474;-77
2023/06/25 07:28:50;;;;;;;5.97;5.47;;;;;;;26.43;40.59;99295.63;5074126;28;20108;-76
2023/06/25 07:31:16;;;;;;;6.00;5.25;;;;;;;26.67;40.62;99317.28;5073955;28;20107;-76
2023/06/25 07:33:41;;;;;;;5.47;4.97;;;;;;;24.65;40.52;99003.41;5073783;28;20020;-76
2023/06/25 07:36:06;;;;;;;7.20;6.25;;;;;;;26.70;40.62;99316.69;5073853;28;20500;-76
2023/06/25 07:38:32;;;;;;;5.90;5.30;;;;;;;26.53;40.57;99277.38;5073762;28;20481;-77
2023/06/25 07:40:57;;;;;;;6.50;5.68;;;;;;;26.58;40.43;99257.53;5073915;28;20073;-77
2023/06/25 07:43:23;;;;;;;6.03;5.53;;;;;;;26.96;40.37;99299.06;5072614;28;20016;-76
2023/06/25 07:45:48;;;;;;;6.70;6.05;;;;;;;27.07;40.28;99292.44;5072852;28;20082;-77
2023/06/25 07:48:13;;;;;;;7.82;5.70;;;;;;;27.20;40.58;99305.25;5073634;28;20099;-77
2023/06/25 07:50:39;;;;;;;6.18;5.57;;;;;;;27.27;40.82;99309.50;5074026;28;20074;-75
2023/06/25 07:53:04;;;;;;;7.72;5.70;;;;;;;27.30;41.05;99319.75;5073552;28;20024;-76
2023/06/25 07:55:29;;;;;;;7.28;6.43;;;;;;;26.84;41.56;99218.22;5073555;28;20020;-74
2023/06/25 07:57:55;;;;;;;6.63;6.03;;;;;;;27.18;41.64;99257.84;5073259;28;20116;-77
2023/06/25 08:00:20;;;;;;;8.57;6.50;;;;;;;27.29;41.68;99264.72;5073534;28;20016;-74
2023/06/25 08:02:46;;;;;;;6.75;6.05;;;;;;;27.51;41.73;99277.69;5072077;28;20029;-78
2023/06/25 08:05:11;;;;;;;8.93;6.85;;;;;;;27.63;42.20;99283.50;5073418;28;20024;-77
2023/06/25 08:07:37;;;;;;;9.02;7.72;;;;;;;27.49;42.35;99252.75;5073291;28;20031;-77
2023/06/25 08:10:02;;;;;;;7.82;6.65;;;;;;;27.49;42.09;99252.75;5072012;28;20032;-75
2023/06/25 08:12:28;;;;;;;9.13;7.65;;;;;;;27.53;42.25;99248.38;5073071;28;20032;-78
2023/06/25 08:14:53;;;;;;;7.82;6.93;;;;;;;27.92;42.15;99275.13;5073350;28;20054;-76
2023/06/25 08:17:19;;;;;;;7.40;6.38;;;;;;;27.61;42.48;99206.25;5073602;28;20477;-76
2023/06/25 08:19:44;;;;;;;13.23;7.13;;;;;;;27.60;42.66;99191.84;5073199;28;20021;-77
2023/06/25 08:22:09;;;;;;;12.43;7.80;;;;;;;27.78;43.04;99223.56;5073298;28;20029;-75
2023/06/25 08:24:35;;;;;;;8.55;7.22;;;;;;;28.00;42.98;99246.50;5073433;28;20025;-75
2023/06/25 08:27:00;;;;;;;8.55;7.22;;;;;;;27.93;43.09;99218.94;5073350;28;20085;-75
2023/06/25 08:29:26;;;;;;;8.73;7.65;;;;;;;28.20;42.74;99258.88;5072955;28;20020;-76
2023/06/25 08:31:51;;;;;;;8.07;6.75;;;;;;;28.15;42.40;99262.50;5072638;28;20020;-76
2023/06/25 08:34:17;;;;;;;8.63;6.68;;;;;;;27.76;42.34;99182.34;5072542;28;20074;-76
2023/06/25 08:36:42;;;;;;;8.15;7.28;;;;;;;28.00;41.95;99193.03;5072579;28;20500;-75
2023/06/25 08:39:07;;;;;;;8.05;7.32;;;;;;;27.92;42.06;99169.31;5072857;28;20013;-78
2023/06/25 08:41:34;;;;;;;9.20;8.02;;;;;;;28.51;42.13;99256.41;5071282;28;20063;-76
2023/06/25 08:44:00;;;;;;;9.32;6.90;;;;;;;28.15;41.68;99172.91;5072669;28;20028;-77
2023/06/25 08:46:26;;;;;;;8.52;6.70;;;;;;;28.78;41.25;99259.09;5072841;28;20021;-75
2023/06/25 08:48:54;;;;;;;8.48;7.53;;;;;;;28.50;41.25;99186.91;5072639;28;20105;-77
2023/06/25 08:51:23;;;;;;;9.23;7.03;;;;;;;28.61;41.01;99185.56;5072411;28;20108;-78
2023/06/25 08:53:49;;;;;;;8.70;6.50;;;;;;;29.16;40.64;99251.50;5072336;28;20100;-77
2023/06/25 08:56:16;;;;;;;10.90;7.20;;;;;;;29.27;40.51;99244.72;5071449;28;20502;-76
2023/06/25 08:58:42;;;;;;;8.95;6.75;;;;;;;29.38;40.04;99232.47;5071358;28;20040;-77
2023/06/25 09:01:07;;;;;;;8.13;6.68;;;;;;;29.24;39.36;99192.84;5073396;28;20520;-77
2023/06/25 09:03:33;;;;;;;8.07;6.75;;;;;;;29.42;39.61;99205.44;5072921;28;20027;-76
2023/06/25 09:05:58;;;;;;;8.93;7.18;;;;;;;29.43;39.67;99179.88;5072804;28;20013;-77
2023/06/25 09:08:25;;;;;;;7.13;6.53;;;;;;;29.97;39.21;99244.06;5072395;28;20021;-77
2023/06/25 09:10:55;;;;;;;8.38;7.20;;;;;;;30.05;38.80;99226.19;5072116;28;20497;-77
2023/06/25 09:13:26;;;;;;;7.60;6.80;;;;;;;30.14;38.48;99231.69;5072119;28;20052;-77
2023/06/25 09:15:59;;;;;;;8.77;7.38;;;;;;;30.05;38.54;99196.25;5072136;28;20021;-76
2023/06/25 09:18:24;;;;;;;8.55;6.65;;;;;;;30.36;38.05;99240.56;5072006;28;20355;-77
2023/06/25 09:20:50;;;;;;;7.40;6.65;;;;;;;30.39;37.84;99225.50;5070625;28;20028;-77
2023/06/25 09:23:20;;;;;;;8.73;6.93;;;;;;;30.47;37.49;99204.84;5071628;28;20463;-78
2023/06/25 09:25:46;;;;;;;8.27;6.45;;;;;;;30.69;37.68;99188.44;5071801;28;20406;-78
2023/06/25 09:28:11;;;;;;;7.50;6.80;;;;;;;30.82;37.20;99183.94;5071531;28;20029;-76
2023/06/25 09:30:39;;;;;;;9.23;7.82;;;;;;;30.80;37.08;99172.56;5071573;28;20029;-79
2023/06/25 09:33:05;;;;;;;7.47;6.65;;;;;;;30.72;37.01;99163.25;5071703;28;20020;-76
2023/06/25 09:35:32;;;;;;;8.88;7.25;;;;;;;31.39;36.84;99227.44;5071878;28;20099;-77
2023/06/25 09:37:57;;;;;;;8.25;6.90;;;;;;;31.58;36.84;99208.78;5071661;28;20075;-78
2023/06/25 09:40:23;;;;;;;10.73;7.93;;;;;;;31.37;36.69;99137.72;5070374;28;20071;-77
2023/06/25 09:42:53;;;;;;;7.90;7.10;;;;;;;32.01;36.31;99218.81;5070448;28;20023;-78
2023/06/25 09:45:21;;;;;;;8.18;7.03;;;;;;;32.10;36.06;99211.38;5071570;28;20095;-78
2023/06/25 09:47:48;;;;;;;7.70;7.00;;;;;;;32.18;36.02;99203.16;5071195;28;20046;-77
2023/06/25 09:50:18;;;;;;;8.77;6.72;;;;;;;32.41;35.71;99211.09;5071269;28;20029;-75
2023/06/25 09:53:02;;;;;;;7.68;6.88;;;;;;;32.66;35.18;99212.84;5071242;28;20477;-78
2023/06/25 09:55:29;;;;;;;8.38;7.47;;;;;;;32.90;35.32;99205.97;5070025;28;20426;-76
2023/06/25 09:57:56;;;;;;;10.20;7.22;;;;;;;33.05;34.76;99210.84;5071379;28;20429;-76
2023/06/25 10:00:23;;;;;;;7.70;6.93;;;;;;;32.65;34.63;99125.69;5071625;28;20093;-77
2023/06/25 10:02:49;;;;;;;8.98;7.82;;;;;;;33.23;34.40;99197.78;5071489;28;20054;-77
2023/06/25 10:05:15;;;;;;;8.80;7.32;;;;;;;32.83;34.41;99117.06;5071481;28;20081;-77
2023/06/25 10:07:43;;;;;;;7.90;7.00;;;;;;;33.40;33.95;99183.97;5071279;28;20024;-76
2023/06/25 10:10:22;;;;;;;6.85;6.07;;;;;;;33.47;33.95;99187.78;5071561;28;20036;-77
2023/06/25 10:12:49;;;;;;;9.93;7.78;;;;;;;33.12;34.51;99121.63;5071694;28;20024;-78
2023/06/25 10:15:14;;;;;;;9.18;7.20;;;;;;;33.47;34.44;99145.94;5071201;28;20035;-77
2023/06/25 10:17:52;;;;;;;10.23;7.22;;;;;;;33.64;33.48;99148.47;5071233;28;20032;-77
2023/06/25 10:20:27;;;;;;;8.02;7.20;;;;;;;33.94;32.79;99153.75;5071380;28;20024;-77
2023/06/25 10:23:10;;;;;;;7.85;7.05;;;;;;;34.02;32.72;99150.09;5069918;28;20063;-76
2023/06/25 10:25:39;;;;;;;7.65;6.90;;;;;;;34.17;33.09;99163.09;5071168;28;20497;-78
2023/06/25 10:28:13;;;;;;;9.68;6.80;;;;;;;33.83;31.71;99103.31;5070920;28;20033;-76
2023/06/25 10:30:41;;;;;;;7.60;6.90;;;;;;;33.90;32.59;99118.03;5066193;28;20623;-76
2023/06/25 10:33:07;;;;;;;9.55;7.10;;;;;;;34.13;32.61;99117.56;5063609;28;20031;-76
2023/06/25 10:35:38;;;;;;;8.27;6.68;;;;;;;34.16;32.31;99086.72;5069364;28;20024;-75
2023/06/25 10:38:03;;;;;;;7.07;6.38;;;;;;;34.69;31.68;99145.91;5069626;28;20524;-75
2023/06/25 10:40:37;;;;;;;6.90;6.20;;;;;;;34.69;31.45;99078.16;5071042;28;20107;-77
2023/06/25 10:43:03;;;;;;;10.10;6.78;;;;;;;35.14;31.00;99122.91;5069712;28;20462;-76
2023/06/25 10:45:29;;;;;;;6.90;6.15;;;;;;;35.22;30.92;99130.19;5071063;28;20049;-77
2023/06/25 10:48:11;;;;;;;6.75;6.00;;;;;;;35.33;30.03;99101.91;5070737;28;20413;-75
2023/06/25 10:50:37;;;;;;;6.78;6.18;;;;;;;35.54;30.11;99111.81;5070989;28;20032;-78
2023/06/25 10:53:11;;;;;;;7.05;6.30;;;;;;;35.60;29.86;99111.19;5071085;28;20086;-74
2023/06/25 10:55:38;;;;;;;11.80;7.18;;;;;;;35.57;29.87;99108.38;5070856;28;20050;-77
2023/06/25 10:58:03;;;;;;;8.38;6.78;;;;;;;35.24;29.97;99051.84;5070580;28;20117;-76
2023/06/25 11:00:29;;;;;;;7.20;6.50;;;;;;;35.71;29.64;99073.03;5070975;28;20505;-77
2023/06/25 11:02:55;;;;;;;7.95;6.32;;;;;;;36.04;29.56;99094.63;5070990;28;20078;-77
2023/06/25 11:05:31;;;;;;;8.85;6.22;;;;;;;36.27;29.11;99101.03;5069672;28;20048;-77
2023/06/25 11:07:56;;;;;;;7.93;6.85;;;;;;;36.08;28.50;99053.47;5070776;28;20029;-78
2023/06/25 11:10:25;;;;;;;8.02;6.28;;;;;;;36.28;28.31;99063.31;5070940;28;20029;-75
2023/06/25 11:12:50;;;;;;;7.15;6.45;;;;;;;36.27;27.87;99073.53;5070863;28;20020;-77
2023/06/25 11:15:17;;;;;;;6.93;6.20;;;;;;;36.35;27.59;99070.97;5070558;28;20394;-77
2023/06/25 11:17:43;;;;;;;5.90;5.20;;;;;;;35.94;27.38;98994.31;5070589;28;20040;-77
2023/06/25 11:20:09;;;;;;;6.57;5.57;;;;;;;36.44;27.48;99050.38;5072055;28;20405;-78
2023/06/25 11:22:44;;;;;;;8.55;6.72;;;;;;;36.36;26.85;99051.34;5073983;28;20028;-75
2023/06/25 11:25:14;;;;;;;7.32;5.95;;;;;;;36.10;27.47;99015.44;5074088;28;20031;-76
2023/06/25 11:27:40;;;;;;;7.28;5.35;;;;;;;36.54;27.23;99055.28;5073986;28;20070;-75